Time;durP1;ratioP1;P1;durP2;ratioP2;P2;SDS_P1;SDS_P2;PMS_P1;PMS_P2;Temp;Humidity;BMP_temperature;BMP_pressure;BME280_temperature;BME280_humidity;BME280_pressure;Samples;Min_cycle;Max_cycle;Signal;HPM_P1;HPM_P2
2021/07/22 00:00:12;;;;;;;5.47;2.20;;;14.60;99.90;;;;;;2025368;29;20221;-68
2021/07/22 00:01:13;;;;;;;2.38;2.17;;;14.50;99.90;;;;;;2032999;29;20236;-71
2021/07/22 00:02:14;;;;;;;1.87;1.20;;;14.50;99.90;;;;;;2025140;29;20558;-73
2021/07/22 00:03:14;;;;;;;2.40;2.20;;;14.50;99.90;;;;;;2025242;29;20273;-72
2021/07/22 00:04:15;;;;;;;2.40;1.80;;;14.50;99.90;;;;;;2026040;29;20178;-73
2021/07/22 00:05:17;;;;;;;1.77;1.67;;;14.40;99.90;;;;;;2026334;29;20173;-71
2021/07/22 00:06:17;;;;;;;1.60;1.50;;;14.40;99.90;;;;;;2025679;29;20257;-72
2021/07/22 00:07:18;;;;;;;2.47;2.27;;;14.30;99.90;;;;;;2010116;29;20199;-73
2021/07/22 00:08:19;;;;;;;3.73;2.47;;;14.30;99.90;;;;;;2017832;29;20202;-72
2021/07/22 00:09:20;;;;;;;2.03;1.90;;;14.30;99.90;;;;;;2026289;29;20548;-72
2021/07/22 00:10:21;;;;;;;2.93;1.50;;;14.20;99.90;;;;;;2025747;29;20735;-72
2021/07/22 00:11:21;;;;;;;2.00;1.83;;;14.20;99.90;;;;;;2018057;29;20201;-72
2021/07/22 00:12:22;;;;;;;2.53;2.03;;;14.20;99.90;;;;;;2025590;29;20300;-72
2021/07/22 00:13:23;;;;;;;2.17;1.33;;;14.20;99.90;;;;;;2033538;29;20181;-72
2021/07/22 00:14:25;;;;;;;2.30;1.30;;;14.20;99.90;;;;;;2033534;29;20269;-72
2021/07/22 00:15:27;;;;;;;1.60;1.50;;;14.20;99.90;;;;;;2033254;29;20213;-72
2021/07/22 00:16:27;;;;;;;1.60;1.50;;;14.20;99.90;;;;;;2026381;29;20190;-72
2021/07/22 00:17:28;;;;;;;2.57;1.67;;;14.10;99.90;;;;;;2025767;29;20192;-76
2021/07/22 00:18:32;;;;;;;2.73;1.90;;;14.10;99.90;;;;;;2025625;29;20232;-72
2021/07/22 00:19:34;;;;;;;2.35;2.25;;;14.10;99.90;;;;;;2018063;29;20315;-73
2021/07/22 00:20:35;;;;;;;1.42;1.13;;;14.10;99.90;;;;;;2018099;29;20185;-71
2021/07/22 00:21:35;;;;;;;2.33;1.97;;;14.10;99.90;;;;;;2017876;29;20204;-73
2021/07/22 00:22:38;;;;;;;3.23;1.60;;;14.10;99.90;;;;;;2017870;29;20230;-72
2021/07/22 00:23:38;;;;;;;3.35;2.08;;;14.10;99.90;;;;;;2025196;29;20182;-73
2021/07/22 00:24:39;;;;;;;2.03;1.50;;;14.10;99.90;;;;;;2025022;29;20181;-72
2021/07/22 00:25:41;;;;;;;2.07;1.27;;;14.10;99.90;;;;;;2033253;29;20181;-72
2021/07/22 00:26:41;;;;;;;2.05;1.95;;;14.00;99.90;;;;;;2033337;29;20214;-73
2021/07/22 00:27:42;;;;;;;1.87;1.70;;;14.00;99.90;;;;;;2033092;29;20604;-72
2021/07/22 00:28:43;;;;;;;2.70;2.13;;;14.00;99.90;;;;;;2025633;29;20380;-72
2021/07/22 00:29:44;;;;;;;1.50;1.30;;;14.00;99.90;;;;;;2025358;29;20221;-71
2021/07/22 00:30:45;;;;;;;1.92;1.00;;;14.00;99.90;;;;;;2025586;29;20188;-71
2021/07/22 00:31:46;;;;;;;2.97;1.47;;;14.00;99.90;;;;;;2017866;29;20685;-72
2021/07/22 00:32:46;;;;;;;1.48;1.25;;;14.00;99.90;;;;;;2025656;29;20193;-72
2021/07/22 00:33:47;;;;;;;2.80;1.57;;;14.00;99.90;;;;;;2025588;29;20193;-73
2021/07/22 00:34:48;;;;;;;2.20;2.10;;;14.00;99.90;;;;;;2025803;29;20229;-72
2021/07/22 00:35:49;;;;;;;3.90;1.83;;;13.90;99.90;;;;;;2026020;29;20180;-72
2021/07/22 00:36:49;;;;;;;1.47;1.37;;;13.90;99.90;;;;;;2026114;29;20186;-72
2021/07/22 00:37:50;;;;;;;2.53;1.73;;;13.90;99.90;;;;;;2025631;29;20261;-75
2021/07/22 00:38:51;;;;;;;1.53;1.43;;;13.90;99.90;;;;;;2025530;29;20178;-73
2021/07/22 00:39:52;;;;;;;2.00;1.90;;;14.00;99.90;;;;;;2026167;29;20221;-72
2021/07/22 00:40:52;;;;;;;1.43;1.33;;;14.00;99.90;;;;;;2026040;29;20269;-71
2021/07/22 00:41:53;;;;;;;4.27;1.70;;;14.00;99.90;;;;;;2026171;29;20818;-73
2021/07/22 00:43:03;;;;;;;2.23;1.93;;;14.00;99.90;;;;;;2026142;29;20216;-71
2021/07/22 00:44:04;;;;;;;1.30;1.30;;;14.00;99.90;;;;;;2025630;29;20189;-73
2021/07/22 00:45:06;;;;;;;3.08;1.90;;;14.00;99.90;;;;;;2025395;29;20182;-73
2021/07/22 00:46:08;;;;;;;4.00;2.35;;;14.00;99.90;;;;;;2025571;29;20200;-73
2021/07/22 00:47:09;;;;;;;2.47;2.22;;;14.00;99.90;;;;;;2025288;29;20181;-72
2021/07/22 00:48:09;;;;;;;1.80;1.70;;;13.90;99.90;;;;;;2026075;29;20190;-72
2021/07/22 00:49:11;;;;;;;3.80;2.20;;;14.00;99.90;;;;;;2025998;29;20178;-72
2021/07/22 00:50:11;;;;;;;4.68;2.35;;;13.90;99.90;;;;;;2033348;29;20220;-73
2021/07/22 00:51:13;;;;;;;2.00;1.40;;;13.90;99.90;;;;;;2024696;29;20281;-72
2021/07/22 00:52:13;;;;;;;2.20;1.75;;;13.90;99.90;;;;;;2025399;29;20201;-71
2021/07/22 00:53:14;;;;;;;2.23;2.03;;;13.80;99.90;;;;;;2026147;29;20607;-71
2021/07/22 00:54:14;;;;;;;1.63;1.40;;;13.80;99.90;;;;;;2025930;29;20193;-71
2021/07/22 00:55:22;;;;;;;2.00;1.70;;;13.80;99.90;;;;;;2026179;29;20198;-72
2021/07/22 00:56:22;;;;;;;2.20;1.85;;;13.80;99.90;;;;;;2026179;29;20178;-72
2021/07/22 00:57:23;;;;;;;2.30;2.10;;;13.70;99.90;;;;;;2025200;29;20182;-72
2021/07/22 00:58:24;;;;;;;1.97;1.57;;;13.70;99.90;;;;;;2025527;29;20314;-74
2021/07/22 00:59:24;;;;;;;2.30;1.97;;;13.70;99.90;;;;;;2025224;29;20955;-72
2021/07/22 01:00:25;;;;;;;1.77;1.67;;;13.80;99.90;;;;;;2017587;29;20218;-73
2021/07/22 01:01:26;;;;;;;1.87;1.67;;;13.70;99.90;;;;;;2025334;29;20189;-72
2021/07/22 01:02:27;;;;;;;1.65;1.55;;;13.70;99.90;;;;;;2017675;29;20242;-72
2021/07/22 01:03:27;;;;;;;4.87;2.17;;;13.70;99.90;;;;;;2025321;29;20182;-74
2021/07/22 01:04:28;;;;;;;2.13;1.93;;;13.70;99.90;;;;;;2025357;29;20209;-74
2021/07/22 01:05:29;;;;;;;1.50;1.40;;;13.70;99.90;;;;;;2025226;29;20193;-72
2021/07/22 01:06:29;;;;;;;2.40;1.93;;;13.70;99.90;;;;;;2026148;29;20233;-72
2021/07/22 01:07:30;;;;;;;1.10;1.10;;;13.70;99.90;;;;;;2025976;29;20717;-73
2021/07/22 01:08:31;;;;;;;1.73;1.33;;;13.60;99.90;;;;;;2025979;29;20230;-72
2021/07/22 01:09:32;;;;;;;3.30;1.70;;;13.60;99.90;;;;;;2025695;29;20185;-72
2021/07/22 01:10:32;;;;;;;1.80;1.70;;;13.60;99.90;;;;;;2025281;29;20214;-72
2021/07/22 01:11:33;;;;;;;3.00;1.53;;;13.60;99.90;;;;;;2017641;29;20210;-72
2021/07/22 01:12:34;;;;;;;1.10;1.10;;;13.60;99.90;;;;;;2025270;29;20229;-72
2021/07/22 01:13:34;;;;;;;1.37;1.27;;;13.50;99.90;;;;;;2033002;29;20249;-72
2021/07/22 01:14:35;;;;;;;2.77;1.67;;;13.60;99.90;;;;;;2027613;29;20586;-72
2021/07/22 01:15:36;;;;;;;2.97;2.00;;;13.50;99.90;;;;;;2017512;29;20213;-72
2021/07/22 01:16:36;;;;;;;3.00;2.40;;;13.50;99.90;;;;;;2017565;29;20179;-72
2021/07/22 01:17:45;;;;;;;3.60;2.03;;;13.50;99.90;;;;;;2025279;29;20245;-72
2021/07/22 01:18:45;;;;;;;1.27;1.27;;;13.50;99.90;;;;;;2025209;29;20177;-72
2021/07/22 01:19:46;;;;;;;0.90;0.90;;;13.50;99.90;;;;;;2025130;29;20216;-72
2021/07/22 01:20:47;;;;;;;1.90;1.80;;;13.50;99.90;;;;;;2025416;29;20190;-72
2021/07/22 01:21:47;;;;;;;1.93;1.67;;;13.50;99.90;;;;;;2017557;29;20190;-72
2021/07/22 01:22:51;;;;;;;1.60;1.50;;;13.50;99.90;;;;;;2009916;29;20190;-72
2021/07/22 01:23:53;;;;;;;4.50;1.52;;;13.50;99.90;;;;;;2018005;29;20202;-72
2021/07/22 01:24:53;;;;;;;3.50;2.30;;;13.50;99.90;;;;;;2026003;29;20326;-72
2021/07/22 01:25:54;;;;;;;1.63;1.53;;;13.50;99.90;;;;;;2017464;29;20753;-72
2021/07/22 01:26:55;;;;;;;1.63;1.50;;;13.50;99.90;;;;;;2017715;29;20206;-72
2021/07/22 01:27:57;;;;;;;1.53;1.30;;;13.60;99.90;;;;;;2025329;29;20772;-72
2021/07/22 01:28:58;;;;;;;2.15;1.92;;;13.60;99.90;;;;;;2025330;29;20595;-72
2021/07/22 01:29:59;;;;;;;2.37;2.07;;;13.60;99.90;;;;;;2025650;29;20304;-72
2021/07/22 01:30:59;;;;;;;3.07;1.37;;;13.50;99.90;;;;;;2026052;29;20252;-72
2021/07/22 01:32:05;;;;;;;1.43;1.33;;;13.50;99.90;;;;;;2025816;29;20192;-72
2021/07/22 01:33:05;;;;;;;1.73;1.52;;;13.50;99.90;;;;;;2025232;29;20209;-72
2021/07/22 01:34:06;;;;;;;1.53;1.43;;;13.50;99.90;;;;;;2017404;29;20250;-72
2021/07/22 01:35:09;;;;;;;3.57;1.60;;;13.50;99.90;;;;;;2025342;29;20190;-72
2021/07/22 01:36:10;;;;;;;1.42;1.33;;;13.50;99.90;;;;;;2025175;29;20190;-75
2021/07/22 01:37:10;;;;;;;1.57;1.43;;;13.50;99.90;;;;;;2025156;29;20192;-71
2021/07/22 01:38:11;;;;;;;2.10;1.27;;;13.50;99.90;;;;;;2025176;29;20181;-72
2021/07/22 01:39:12;;;;;;;2.03;1.83;;;13.50;99.90;;;;;;2025125;29;20194;-72
2021/07/22 01:40:13;;;;;;;2.80;1.50;;;13.50;99.90;;;;;;2025751;29;20210;-71
2021/07/22 01:41:14;;;;;;;1.55;1.45;;;13.40;99.90;;;;;;2025032;29;20228;-72
2021/07/22 01:42:15;;;;;;;1.73;1.63;;;13.40;99.90;;;;;;2025154;29;20586;-74
2021/07/22 01:43:16;;;;;;;2.67;1.47;;;13.40;99.90;;;;;;2032851;29;20184;-73
2021/07/22 01:44:17;;;;;;;2.43;2.23;;;13.40;99.90;;;;;;2032999;29;20185;-72
2021/07/22 01:45:17;;;;;;;1.50;1.40;;;13.40;99.90;;;;;;2025235;29;20669;-72
2021/07/22 01:46:19;;;;;;;3.33;1.40;;;13.40;99.90;;;;;;2025056;29;20445;-72
2021/07/22 01:47:20;;;;;;;0.98;0.93;;;13.40;99.90;;;;;;2024893;29;20181;-72
2021/07/22 01:48:20;;;;;;;1.73;1.63;;;13.30;99.90;;;;;;2017483;29;20187;-72
2021/07/22 01:49:21;;;;;;;1.70;1.30;;;13.30;99.90;;;;;;2017225;29;20245;-73
2021/07/22 01:50:22;;;;;;;1.57;1.37;;;13.30;99.90;;;;;;2025133;29;20869;-73
2021/07/22 01:51:23;;;;;;;2.07;1.67;;;13.30;99.90;;;;;;2025522;29;20575;-72
2021/07/22 01:52:23;;;;;;;6.30;2.20;;;13.30;99.90;;;;;;2025674;29;20724;-72
2021/07/22 01:53:24;;;;;;;2.30;1.13;;;13.30;99.90;;;;;;2025035;29;20209;-72
2021/07/22 01:54:24;;;;;;;1.13;1.13;;;13.20;99.90;;;;;;2017240;29;20714;-72
2021/07/22 01:55:25;;;;;;;1.90;1.33;;;13.20;99.90;;;;;;2017264;29;20234;-72
2021/07/22 01:56:26;;;;;;;0.87;0.87;;;13.20;99.90;;;;;;2017219;29;20217;-72
2021/07/22 01:57:27;;;;;;;1.30;1.20;;;13.20;99.90;;;;;;2017036;29;20198;-73
2021/07/22 01:58:27;;;;;;;2.30;1.60;;;13.20;99.90;;;;;;2017229;29;20693;-72
2021/07/22 01:59:38;;;;;;;3.33;2.10;;;13.20;99.90;;;;;;2009308;29;20229;-71
2021/07/22 02:00:38;;;;;;;1.25;1.08;;;13.20;99.90;;;;;;2012066;29;20254;-72
2021/07/22 02:01:39;;;;;;;1.63;1.53;;;13.10;99.90;;;;;;2025003;29;20174;-71
2021/07/22 02:02:41;;;;;;;2.13;2.03;;;13.10;99.90;;;;;;2025422;29;20374;-71
2021/07/22 02:03:42;;;;;;;1.98;1.80;;;13.10;99.90;;;;;;2025485;29;20178;-72
2021/07/22 02:04:43;;;;;;;2.53;1.47;;;13.10;99.90;;;;;;2025000;29;20210;-72
2021/07/22 02:05:43;;;;;;;1.90;1.67;;;13.10;99.90;;;;;;2025004;29;20181;-71
2021/07/22 02:06:44;;;;;;;1.57;1.47;;;13.10;99.90;;;;;;2025590;29;20337;-72
2021/07/22 02:07:45;;;;;;;2.70;1.87;;;13.00;99.90;;;;;;2024530;29;20197;-71
2021/07/22 02:08:46;;;;;;;3.13;2.47;;;13.10;99.90;;;;;;2017155;29;20934;-72
2021/07/22 02:09:46;;;;;;;2.07;1.87;;;13.10;99.90;;;;;;2024709;29;20209;-72
2021/07/22 02:10:53;;;;;;;2.43;1.57;;;13.00;99.90;;;;;;2025406;29;20185;-71
2021/07/22 02:11:56;;;;;;;3.08;2.00;;;13.00;99.90;;;;;;2023540;29;20225;-72
2021/07/22 02:12:56;;;;;;;1.70;1.60;;;13.00;99.90;;;;;;2017289;29;20202;-72
2021/07/22 02:13:57;;;;;;;1.53;1.40;;;13.00;99.90;;;;;;2017117;29;20582;-72
2021/07/22 02:14:58;;;;;;;2.03;1.93;;;12.90;99.90;;;;;;2017044;29;20189;-72
2021/07/22 02:15:59;;;;;;;1.77;1.47;;;12.90;99.90;;;;;;2024800;29;20204;-73
2021/07/22 02:16:59;;;;;;;2.23;2.03;;;12.90;99.90;;;;;;2024770;29;20178;-72
2021/07/22 02:18:00;;;;;;;1.50;1.40;;;12.90;99.90;;;;;;2024959;29;20214;-72
2021/07/22 02:19:01;;;;;;;5.03;1.80;;;12.90;99.90;;;;;;2024723;29;20234;-72
2021/07/22 02:20:02;;;;;;;1.20;1.20;;;12.90;99.90;;;;;;2024634;29;20226;-72
2021/07/22 02:21:09;;;;;;;2.20;1.65;;;12.90;99.90;;;;;;2024908;29;20177;-72
2021/07/22 02:22:10;;;;;;;1.30;1.30;;;12.90;99.90;;;;;;2024888;29;20247;-72
2021/07/22 02:23:11;;;;;;;1.17;1.17;;;12.90;99.90;;;;;;2024776;29;20310;-72
2021/07/22 02:24:13;;;;;;;1.60;1.50;;;12.90;99.90;;;;;;2024690;29;20587;-72
2021/07/22 02:25:14;;;;;;;0.90;0.90;;;12.90;99.90;;;;;;2017342;29;20682;-72
2021/07/22 02:26:14;;;;;;;1.43;1.20;;;12.90;99.90;;;;;;2024893;29;20181;-72
2021/07/22 02:27:15;;;;;;;2.90;1.80;;;12.80;99.90;;;;;;2025168;29;20221;-73
2021/07/22 02:28:16;;;;;;;1.93;1.77;;;12.80;99.90;;;;;;2024625;29;20212;-72
2021/07/22 02:29:16;;;;;;;1.93;1.63;;;12.80;99.90;;;;;;2024714;29;20208;-72
2021/07/22 02:30:17;;;;;;;3.93;1.90;;;12.80;99.90;;;;;;2024596;29;20707;-73
2021/07/22 02:31:18;;;;;;;8.07;1.27;;;12.80;99.90;;;;;;2024897;29;20185;-72
2021/07/22 02:32:18;;;;;;;2.43;2.23;;;12.80;99.90;;;;;;2024645;29;20189;-72
2021/07/22 02:33:19;;;;;;;1.23;1.20;;;12.80;99.90;;;;;;2017041;29;20574;-72
2021/07/22 02:34:20;;;;;;;1.20;1.10;;;12.80;99.90;;;;;;2024692;29;20209;-72
2021/07/22 02:35:20;;;;;;;2.37;1.83;;;12.70;99.90;;;;;;2025372;29;20182;-72
2021/07/22 02:36:21;;;;;;;1.67;1.37;;;12.80;99.90;;;;;;2024760;29;20208;-74
2021/07/22 02:37:22;;;;;;;1.10;1.10;;;12.80;99.90;;;;;;2009219;29;20306;-72
2021/07/22 02:38:22;;;;;;;1.80;1.17;;;12.80;99.90;;;;;;2017167;29;20681;-72
2021/07/22 02:39:24;;;;;;;2.20;2.00;;;12.80;99.90;;;;;;2024600;29;20194;-75
2021/07/22 02:40:25;;;;;;;2.20;2.03;;;12.80;99.90;;;;;;2016759;29;20221;-72
2021/07/22 02:41:27;;;;;;;0.90;0.90;;;12.80;99.90;;;;;;2024639;29;20177;-72
2021/07/22 02:42:28;;;;;;;1.15;1.15;;;12.80;99.90;;;;;;2024623;29;20185;-72
2021/07/22 02:43:28;;;;;;;1.70;1.60;;;12.80;99.90;;;;;;2024721;29;20669;-71
2021/07/22 02:44:29;;;;;;;2.87;1.37;;;12.80;99.90;;;;;;2025338;29;20185;-72
2021/07/22 02:45:30;;;;;;;1.83;1.73;;;12.70;99.90;;;;;;2016916;29;20190;-72
2021/07/22 02:46:31;;;;;;;1.50;1.30;;;12.70;99.90;;;;;;2016973;29;20253;-72
2021/07/22 02:47:31;;;;;;;1.60;1.50;;;12.70;99.90;;;;;;2024533;29;20220;-72
2021/07/22 02:48:33;;;;;;;2.03;1.90;;;12.70;99.90;;;;;;2017051;29;20215;-72
2021/07/22 02:49:34;;;;;;;1.65;1.35;;;12.70;99.90;;;;;;2017040;29;20193;-72
2021/07/22 02:50:35;;;;;;;2.83;1.93;;;12.70;99.90;;;;;;2024434;29;20196;-72
2021/07/22 02:51:35;;;;;;;1.30;1.20;;;12.70;99.90;;;;;;2025247;29;20241;-72
2021/07/22 02:52:36;;;;;;;1.37;1.27;;;12.60;99.90;;;;;;2016801;29;20189;-72
2021/07/22 02:53:37;;;;;;;2.70;1.90;;;12.60;99.90;;;;;;2016972;29;20618;-72
2021/07/22 02:54:37;;;;;;;2.13;1.80;;;12.60;99.90;;;;;;2024674;29;20671;-72
2021/07/22 02:55:38;;;;;;;8.30;2.93;;;12.70;99.90;;;;;;2024476;29;20201;-72
2021/07/22 02:56:39;;;;;;;1.20;1.20;;;12.70;99.90;;;;;;2025192;29;20253;-72
2021/07/22 02:57:40;;;;;;;1.95;1.85;;;12.70;99.90;;;;;;2025118;29;20177;-71
2021/07/22 02:58:41;;;;;;;3.47;1.70;;;12.70;99.90;;;;;;2016929;29;20210;-71
2021/07/22 02:59:42;;;;;;;1.27;1.20;;;12.70;99.90;;;;;;2016631;29;20589;-74
2021/07/22 03:00:42;;;;;;;1.47;1.37;;;12.70;99.90;;;;;;2025248;29;20185;-73
2021/07/22 03:01:43;;;;;;;2.93;1.90;;;12.70;99.90;;;;;;2025101;29;20193;-71
2021/07/22 03:02:44;;;;;;;2.47;2.03;;;12.70;99.90;;;;;;2024521;29;20194;-71
2021/07/22 03:03:44;;;;;;;1.80;1.70;;;12.60;99.90;;;;;;2024625;29;20194;-72
2021/07/22 03:04:45;;;;;;;2.57;2.20;;;12.70;99.90;;;;;;2024505;29;20193;-72
2021/07/22 03:05:46;;;;;;;1.73;1.60;;;12.70;99.90;;;;;;2027072;29;20206;-72
2021/07/22 03:06:47;;;;;;;1.93;0.97;;;12.60;99.90;;;;;;2024706;29;20576;-71
2021/07/22 03:07:48;;;;;;;5.03;2.58;;;12.60;99.90;;;;;;2024337;29;20649;-71
2021/07/22 03:08:48;;;;;;;1.70;1.50;;;12.60;99.90;;;;;;2017071;29;20183;-72
2021/07/22 03:09:50;;;;;;;3.40;2.00;;;12.60;99.90;;;;;;2008964;29;20210;-72
2021/07/22 03:10:51;;;;;;;1.02;0.93;;;12.50;99.90;;;;;;2009169;29;20187;-72
2021/07/22 03:11:51;;;;;;;1.67;1.57;;;12.60;99.90;;;;;;2008944;29;20202;-72
2021/07/22 03:12:55;;;;;;;1.50;1.40;;;12.60;99.90;;;;;;2016890;29;20187;-71
2021/07/22 03:13:56;;;;;;;2.65;1.70;;;12.60;99.90;;;;;;2009723;29;20183;-71
2021/07/22 03:14:57;;;;;;;2.15;1.98;;;12.60;99.90;;;;;;2011386;29;20709;-71
2021/07/22 03:15:57;;;;;;;1.87;1.77;;;12.50;99.90;;;;;;2011759;29;20190;-71
2021/07/22 03:16:58;;;;;;;3.17;1.73;;;12.50;99.90;;;;;;2019228;29;20714;-71
2021/07/22 03:17:59;;;;;;;1.57;1.47;;;12.50;99.90;;;;;;2019441;29;20598;-72
2021/07/22 03:19:00;;;;;;;2.60;2.07;;;12.50;99.90;;;;;;2019420;29;20193;-71
2021/07/22 03:20:00;;;;;;;3.47;2.37;;;12.50;99.90;;;;;;2019756;29;20253;-71
2021/07/22 03:21:01;;;;;;;1.70;1.60;;;12.50;99.90;;;;;;2019981;29;20220;-71
2021/07/22 03:22:02;;;;;;;1.77;1.67;;;12.40;99.90;;;;;;2019422;29;20265;-71
2021/07/22 03:23:03;;;;;;;2.90;2.40;;;12.40;99.90;;;;;;2011671;29;20187;-72
2021/07/22 03:24:04;;;;;;;3.15;2.00;;;12.40;99.90;;;;;;2011640;29;20222;-73
2021/07/22 03:25:06;;;;;;;1.42;1.33;;;12.40;99.90;;;;;;2011746;29;20186;-71
2021/07/22 03:26:07;;;;;;;1.73;1.63;;;12.30;99.90;;;;;;2019222;29;20573;-71
2021/07/22 03:27:08;;;;;;;1.93;1.73;;;12.40;99.90;;;;;;2019212;29;20277;-71
2021/07/22 03:28:08;;;;;;;1.40;1.30;;;12.40;99.90;;;;;;2019727;29;20647;-72
2021/07/22 03:29:09;;;;;;;2.87;2.13;;;12.30;99.90;;;;;;2019711;29;20245;-71
2021/07/22 03:30:10;;;;;;;3.00;1.90;;;12.30;99.90;;;;;;2019003;29;20229;-71
2021/07/22 03:31:11;;;;;;;1.67;1.40;;;12.30;99.90;;;;;;2019072;29;20198;-70
2021/07/22 03:32:12;;;;;;;1.97;1.77;;;12.30;99.90;;;;;;2018986;29;20700;-71
2021/07/22 03:33:13;;;;;;;1.43;1.30;;;12.30;99.90;;;;;;2011436;29;20219;-71
2021/07/22 03:34:14;;;;;;;2.63;2.07;;;12.30;99.90;;;;;;2011419;29;20255;-71
2021/07/22 03:35:14;;;;;;;1.55;1.45;;;12.20;99.90;;;;;;2019060;29;20253;-71
2021/07/22 03:36:15;;;;;;;1.93;1.77;;;12.20;99.90;;;;;;2019702;29;20192;-71
2021/07/22 03:37:16;;;;;;;1.87;1.77;;;12.20;99.90;;;;;;2019574;29;20182;-71
2021/07/22 03:38:16;;;;;;;1.37;1.27;;;12.20;99.90;;;;;;2019712;29;20289;-71
2021/07/22 03:39:17;;;;;;;1.80;1.70;;;12.20;99.90;;;;;;2019610;29;20268;-71
2021/07/22 03:40:18;;;;;;;2.90;1.80;;;12.20;99.90;;;;;;2018936;29;20329;-71
2021/07/22 03:41:22;;;;;;;3.15;2.28;;;12.20;99.90;;;;;;2019083;29;20178;-71
2021/07/22 03:42:27;;;;;;;1.48;1.30;;;12.20;99.90;;;;;;2019055;29;20646;-71
2021/07/22 03:43:28;;;;;;;1.67;1.58;;;12.20;99.90;;;;;;2019128;29;20692;-71
2021/07/22 03:44:28;;;;;;;2.33;2.13;;;12.20;99.90;;;;;;2019549;29;20183;-71
2021/07/22 03:45:29;;;;;;;1.03;1.00;;;12.20;99.90;;;;;;2019669;29;20181;-71
2021/07/22 03:46:33;;;;;;;2.40;1.23;;;12.20;99.90;;;;;;2019786;29;20182;-71
2021/07/22 03:47:33;;;;;;;1.77;1.67;;;12.20;99.90;;;;;;2018894;29;20186;-71
2021/07/22 03:48:34;;;;;;;1.13;1.03;;;12.20;99.90;;;;;;2019101;29;20206;-71
2021/07/22 03:49:35;;;;;;;2.13;1.20;;;12.20;99.90;;;;;;2019407;29;20231;-71
2021/07/22 03:50:36;;;;;;;1.63;1.37;;;12.20;99.90;;;;;;2019088;29;20206;-71
2021/07/22 03:51:36;;;;;;;5.53;3.30;;;12.20;99.90;;;;;;2019071;29;20189;-71
2021/07/22 03:52:37;;;;;;;5.23;2.13;;;12.20;99.90;;;;;;2019680;29;20534;-71
2021/07/22 03:53:38;;;;;;;1.20;1.20;;;12.20;99.90;;;;;;2019069;29;20198;-71
2021/07/22 03:54:39;;;;;;;1.40;1.30;;;12.20;99.90;;;;;;2019020;29;20205;-71
2021/07/22 03:55:40;;;;;;;1.67;1.55;;;12.20;99.90;;;;;;2026726;29;20205;-71
2021/07/22 03:56:41;;;;;;;1.30;1.20;;;12.10;99.90;;;;;;2026849;29;20611;-71
2021/07/22 03:57:42;;;;;;;1.08;1.08;;;12.10;99.90;;;;;;2019446;29;20182;-71
2021/07/22 03:58:42;;;;;;;1.67;1.57;;;12.10;99.90;;;;;;2019728;29;20221;-71
2021/07/22 03:59:43;;;;;;;4.27;1.83;;;12.10;99.90;;;;;;2019302;29;20201;-71
2021/07/22 04:00:44;;;;;;;2.90;2.37;;;12.20;99.90;;;;;;2019690;29;20213;-71
2021/07/22 04:01:44;;;;;;;1.47;1.37;;;12.20;99.90;;;;;;2019594;29;20182;-71
2021/07/22 04:02:45;;;;;;;1.43;1.33;;;12.20;99.90;;;;;;2019660;29;20182;-71
2021/07/22 04:03:46;;;;;;;1.70;1.23;;;12.10;99.90;;;;;;2018958;29;20190;-71
2021/07/22 04:04:46;;;;;;;2.23;2.00;;;12.10;99.90;;;;;;2018992;29;20733;-71
2021/07/22 04:05:47;;;;;;;1.57;1.47;;;12.20;99.90;;;;;;2019475;29;20225;-71
2021/07/22 04:06:48;;;;;;;1.00;1.00;;;12.20;99.90;;;;;;2019434;29;20184;-70
2021/07/22 04:07:48;;;;;;;1.50;1.40;;;12.20;99.90;;;;;;2018633;29;20189;-71
2021/07/22 04:08:49;;;;;;;2.23;2.07;;;12.10;99.90;;;;;;2011207;29;20647;-71
2021/07/22 04:09:53;;;;;;;1.03;1.00;;;12.10;99.90;;;;;;2018724;29;20207;-70
2021/07/22 04:10:53;;;;;;;1.52;1.42;;;12.10;99.90;;;;;;2019466;29;20186;-71
2021/07/22 04:11:54;;;;;;;1.60;1.50;;;12.10;99.90;;;;;;2018853;29;20253;-71
2021/07/22 04:12:59;;;;;;;3.00;2.63;;;12.10;99.90;;;;;;2003653;29;20203;-71
2021/07/22 04:14:00;;;;;;;2.00;1.90;;;12.20;99.90;;;;;;2012425;29;20174;-71
2021/07/22 04:15:01;;;;;;;2.97;2.07;;;12.20;99.90;;;;;;2018978;29;20174;-71
2021/07/22 04:16:05;;;;;;;1.33;1.23;;;12.20;99.90;;;;;;2018789;29;20182;-71
2021/07/22 04:17:05;;;;;;;4.90;1.75;;;12.20;99.90;;;;;;2019456;29;20202;-71
2021/07/22 04:18:06;;;;;;;1.80;1.33;;;12.20;99.90;;;;;;2019574;29;20799;-71
2021/07/22 04:19:07;;;;;;;3.27;2.03;;;12.20;99.90;;;;;;2019536;29;20179;-71
2021/07/22 04:20:09;;;;;;;2.27;2.10;;;12.20;99.90;;;;;;2011050;29;20275;-71
2021/07/22 04:21:09;;;;;;;2.20;2.10;;;12.20;99.90;;;;;;2011456;29;20198;-71
2021/07/22 04:22:11;;;;;;;2.47;2.27;;;12.20;99.90;;;;;;2019546;29;20253;-70
2021/07/22 04:23:11;;;;;;;1.98;1.88;;;12.20;99.90;;;;;;2011220;29;20217;-71
2021/07/22 04:24:12;;;;;;;2.30;1.97;;;12.20;99.90;;;;;;2011414;29;20183;-71
2021/07/22 04:25:14;;;;;;;2.50;1.97;;;12.20;99.90;;;;;;2011163;29;20190;-71
2021/07/22 04:26:16;;;;;;;1.30;1.30;;;12.30;99.90;;;;;;2001893;29;20183;-71
2021/07/22 04:27:19;;;;;;;1.45;1.35;;;12.30;99.90;;;;;;2017491;29;20211;-71
2021/07/22 04:28:19;;;;;;;1.33;1.23;;;12.30;99.90;;;;;;2017755;29;20182;-71
2021/07/22 04:29:20;;;;;;;1.90;1.47;;;12.30;99.90;;;;;;2017688;29;20250;-71
2021/07/22 04:30:21;;;;;;;1.47;1.37;;;12.30;99.90;;;;;;2018271;29;20602;-71
2021/07/22 04:31:22;;;;;;;2.77;2.20;;;12.30;99.90;;;;;;2017722;29;20230;-71
2021/07/22 04:32:22;;;;;;;1.17;1.07;;;12.30;99.90;;;;;;2010010;29;20210;-70
2021/07/22 04:33:23;;;;;;;2.07;1.80;;;12.30;99.90;;;;;;2010010;29;20406;-71
2021/07/22 04:34:24;;;;;;;2.10;1.93;;;12.30;99.90;;;;;;2002369;29;20184;-70
2021/07/22 04:35:24;;;;;;;3.77;2.20;;;12.40;99.90;;;;;;2010005;29;20215;-71
2021/07/22 04:36:25;;;;;;;1.60;1.33;;;12.40;99.90;;;;;;2018520;29;20186;-73
2021/07/22 04:37:25;;;;;;;2.30;2.00;;;12.40;99.90;;;;;;2018075;29;20573;-73
2021/07/22 04:38:26;;;;;;;5.37;2.03;;;12.40;99.90;;;;;;2018124;29;20193;-73
2021/07/22 04:39:27;;;;;;;1.33;1.23;;;12.40;99.90;;;;;;2010308;29;20186;-73
2021/07/22 04:40:27;;;;;;;4.40;2.00;;;12.40;99.90;;;;;;2009902;29;20214;-73
2021/07/22 04:41:29;;;;;;;1.83;1.67;;;12.40;99.90;;;;;;2017654;29;20650;-72
2021/07/22 04:42:30;;;;;;;1.40;1.30;;;12.50;99.90;;;;;;2018298;29;20224;-72
2021/07/22 04:43:31;;;;;;;1.47;0.80;;;12.50;99.90;;;;;;2018287;29;20636;-72
2021/07/22 04:44:32;;;;;;;1.92;1.83;;;12.50;99.90;;;;;;2017726;29;20242;-72
2021/07/22 04:45:33;;;;;;;4.20;2.23;;;12.50;99.90;;;;;;2017624;29;20261;-72
2021/07/22 04:46:33;;;;;;;5.17;1.67;;;12.50;99.90;;;;;;2018274;29;20784;-73
2021/07/22 04:47:34;;;;;;;3.60;1.77;;;12.50;99.90;;;;;;2018020;29;20234;-72
2021/07/22 04:48:35;;;;;;;2.00;1.80;;;12.50;99.90;;;;;;2018189;29;20192;-72
2021/07/22 04:49:35;;;;;;;1.87;1.63;;;12.60;99.90;;;;;;2018116;29;20191;-72
2021/07/22 04:50:36;;;;;;;2.07;1.90;;;12.60;99.90;;;;;;2018239;29;20238;-72
2021/07/22 04:51:37;;;;;;;2.57;2.33;;;12.60;99.90;;;;;;2018203;29;20262;-72
2021/07/22 04:52:37;;;;;;;2.17;1.30;;;12.60;99.90;;;;;;2018272;29;20252;-72
2021/07/22 04:53:40;;;;;;;3.73;2.70;;;12.60;99.90;;;;;;2020133;29;20194;-72
2021/07/22 04:54:40;;;;;;;4.50;1.85;;;12.70;99.90;;;;;;2025328;29;20197;-72
2021/07/22 04:55:41;;;;;;;1.97;1.80;;;12.70;99.90;;;;;;2032917;29;20193;-72
2021/07/22 04:56:42;;;;;;;1.00;1.00;;;12.70;99.90;;;;;;2025845;29;20252;-72
2021/07/22 04:57:42;;;;;;;1.57;1.47;;;12.80;99.90;;;;;;2024828;29;20322;-72
2021/07/22 04:58:43;;;;;;;1.10;1.10;;;12.80;99.90;;;;;;2025101;29;20194;-72
2021/07/22 04:59:44;;;;;;;1.50;1.40;;;12.80;99.90;;;;;;2025605;29;20192;-72
2021/07/22 05:00:44;;;;;;;1.10;1.10;;;12.90;99.90;;;;;;2025359;29;20178;-72
2021/07/22 05:01:45;;;;;;;2.53;2.33;;;12.90;99.90;;;;;;2009839;29;20265;-72
2021/07/22 05:02:46;;;;;;;1.83;1.73;;;12.90;99.90;;;;;;2017541;29;20186;-72
2021/07/22 05:03:46;;;;;;;2.43;2.23;;;12.90;99.90;;;;;;2025959;29;20220;-72
2021/07/22 05:04:47;;;;;;;1.83;1.73;;;12.90;99.90;;;;;;2025748;29;20181;-72
2021/07/22 05:05:48;;;;;;;2.47;2.23;;;13.00;99.90;;;;;;2025289;29;20205;-72
2021/07/22 05:06:48;;;;;;;1.70;1.60;;;13.00;99.90;;;;;;2017404;29;20233;-72
2021/07/22 05:07:49;;;;;;;4.47;2.73;;;13.00;99.90;;;;;;2025242;29;20184;-72
2021/07/22 05:08:50;;;;;;;2.10;1.67;;;13.10;99.90;;;;;;2025663;29;20696;-72
2021/07/22 05:09:50;;;;;;;2.33;2.13;;;13.10;99.90;;;;;;2024993;29;20241;-72
2021/07/22 05:10:51;;;;;;;2.00;1.80;;;13.10;99.90;;;;;;2025163;29;20272;-72
2021/07/22 05:11:52;;;;;;;2.30;2.10;;;13.10;99.90;;;;;;2025121;29;20277;-72
2021/07/22 05:13:04;;;;;;;2.67;2.00;;;13.10;99.90;;;;;;2017373;29;20210;-72
2021/07/22 05:14:04;;;;;;;2.40;1.42;;;13.10;99.90;;;;;;2018723;29;20186;-72
2021/07/22 05:15:06;;;;;;;1.27;1.17;;;13.10;99.90;;;;;;2027387;29;20185;-72
2021/07/22 05:16:07;;;;;;;2.75;2.42;;;13.20;99.90;;;;;;2025109;29;20189;-73
2021/07/22 05:17:08;;;;;;;2.00;1.80;;;13.20;99.90;;;;;;2017131;29;20688;-72
2021/07/22 05:18:08;;;;;;;5.33;1.27;;;13.20;99.90;;;;;;2017378;29;20175;-72